sensor_id;sensor_type;location;lat;lon;timestamp;temperature;humidity
32215;DHT22;18708;53.124;23.190;2023-12-28T00:00:17;-0.20;99.90
32215;DHT22;18708;53.124;23.190;2023-12-28T00:02:43;-0.10;99.90
32215;DHT22;18708;53.124;23.190;2023-12-28T00:05:08;-0.20;99.90
32215;DHT22;18708;53.124;23.190;2023-12-28T00:07:34;-0.20;99.90
32215;DHT22;18708;53.124;23.190;2023-12-28T00:10:02;-0.20;99.90
32215;DHT22;18708;53.124;23.190;2023-12-28T00:12:27;-0.20;99.90
32215;DHT22;18708;53.124;23.190;2023-12-28T00:14:53;-0.20;99.90
32215;DHT22;18708;53.124;23.190;2023-12-28T00:17:19;-0.20;99.90
32215;DHT22;18708;53.124;23.190;2023-12-28T00:19:45;-0.20;99.90
32215;DHT22;18708;53.124;23.190;2023-12-28T00:22:11;-0.20;99.90
32215;DHT22;18708;53.124;23.190;2023-12-28T00:24:36;-0.20;99.90
32215;DHT22;18708;53.124;23.190;2023-12-28T00:27:02;-0.20;99.90
32215;DHT22;18708;53.124;23.190;2023-12-28T00:29:28;-0.20;99.90
32215;DHT22;18708;53.124;23.190;2023-12-28T00:31:54;-0.20;99.90
32215;DHT22;18708;53.124;23.190;2023-12-28T00:34:20;-0.20;99.90
32215;DHT22;18708;53.124;23.190;2023-12-28T00:36:46;-0.30;99.90
32215;DHT22;18708;53.124;23.190;2023-12-28T00:39:11;-0.30;99.90
32215;DHT22;18708;53.124;23.190;2023-12-28T00:41:37;-0.30;99.90
32215;DHT22;18708;53.124;23.190;2023-12-28T00:44:03;-0.30;99.90
32215;DHT22;18708;53.124;23.190;2023-12-28T00:46:30;-0.30;99.90
32215;DHT22;18708;53.124;23.190;2023-12-28T00:48:56;-0.30;99.90
32215;DHT22;18708;53.124;23.190;2023-12-28T00:51:22;-0.30;99.90
32215;DHT22;18708;53.124;23.190;2023-12-28T00:53:47;-0.30;99.90
32215;DHT22;18708;53.124;23.190;2023-12-28T00:56:13;-0.30;99.90
32215;DHT22;18708;53.124;23.190;2023-12-28T00:58:41;-0.30;99.90
32215;DHT22;18708;53.124;23.190;2023-12-28T01:01:09;-0.30;99.90
32215;DHT22;18708;53.124;23.190;2023-12-28T01:03:35;-0.30;99.90
32215;DHT22;18708;53.124;23.190;2023-12-28T01:06:00;-0.30;99.90
32215;DHT22;18708;53.124;23.190;2023-12-28T01:08:26;-0.30;99.90
32215;DHT22;18708;53.124;23.190;2023-12-28T01:10:52;-0.30;99.90
32215;DHT22;18708;53.124;23.190;2023-12-28T01:13:17;-0.30;99.90
32215;DHT22;18708;53.124;23.190;2023-12-28T01:15:43;-0.30;99.90
32215;DHT22;18708;53.124;23.190;2023-12-28T01:18:09;-0.30;99.90
32215;DHT22;18708;53.124;23.190;2023-12-28T01:20:35;-0.30;99.90
32215;DHT22;18708;53.124;23.190;2023-12-28T01:23:01;-0.30;99.90
32215;DHT22;18708;53.124;23.190;2023-12-28T01:25:27;-0.30;99.90
32215;DHT22;18708;53.124;23.190;2023-12-28T01:27:53;-0.30;99.90
32215;DHT22;18708;53.124;23.190;2023-12-28T01:30:18;-0.30;99.90
32215;DHT22;18708;53.124;23.190;2023-12-28T01:32:44;-0.20;99.90
32215;DHT22;18708;53.124;23.190;2023-12-28T01:35:10;-0.30;99.90
32215;DHT22;18708;53.124;23.190;2023-12-28T01:37:35;-0.30;99.90
32215;DHT22;18708;53.124;23.190;2023-12-28T01:40:01;-0.30;99.90
32215;DHT22;18708;53.124;23.190;2023-12-28T01:42:27;-0.20;99.90
32215;DHT22;18708;53.124;23.190;2023-12-28T01:44:56;-0.20;99.90
32215;DHT22;18708;53.124;23.190;2023-12-28T01:47:21;-0.20;99.90
32215;DHT22;18708;53.124;23.190;2023-12-28T01:49:47;-0.10;99.90
32215;DHT22;18708;53.124;23.190;2023-12-28T01:52:13;-0.20;99.90
32215;DHT22;18708;53.124;23.190;2023-12-28T01:54:39;-0.10;99.90
32215;DHT22;18708;53.124;23.190;2023-12-28T01:57:05;-0.20;99.90
32215;DHT22;18708;53.124;23.190;2023-12-28T01:59:31;-0.10;99.90
32215;DHT22;18708;53.124;23.190;2023-12-28T02:01:58;-0.10;99.90
32215;DHT22;18708;53.124;23.190;2023-12-28T02:04:24;-0.10;99.90
32215;DHT22;18708;53.124;23.190;2023-12-28T02:07:00;-0.10;99.90
32215;DHT22;18708;53.124;23.190;2023-12-28T02:09:26;-0.10;99.90
32215;DHT22;18708;53.124;23.190;2023-12-28T02:11:53;-0.10;99.90
32215;DHT22;18708;53.124;23.190;2023-12-28T02:14:20;-0.10;99.90
32215;DHT22;18708;53.124;23.190;2023-12-28T02:16:51;0.00;99.90
32215;DHT22;18708;53.124;23.190;2023-12-28T02:19:25;0.00;99.90
32215;DHT22;18708;53.124;23.190;2023-12-28T02:21:59;0.00;99.90
32215;DHT22;18708;53.124;23.190;2023-12-28T02:24:25;0.00;99.90
32215;DHT22;18708;53.124;23.190;2023-12-28T02:26:50;0.00;99.90
32215;DHT22;18708;53.124;23.190;2023-12-28T02:29:16;0.00;99.90
32215;DHT22;18708;53.124;23.190;2023-12-28T02:31:50;0.00;99.90
32215;DHT22;18708;53.124;23.190;2023-12-28T02:34:27;0.00;99.90
32215;DHT22;18708;53.124;23.190;2023-12-28T02:36:54;0.10;99.90
32215;DHT22;18708;53.124;23.190;2023-12-28T02:39:22;0.10;99.90
32215;DHT22;18708;53.124;23.190;2023-12-28T02:41:49;0.10;99.90
32215;DHT22;18708;53.124;23.190;2023-12-28T02:44:15;0.10;99.90
32215;DHT22;18708;53.124;23.190;2023-12-28T02:46:40;0.10;99.90
32215;DHT22;18708;53.124;23.190;2023-12-28T02:49:06;0.10;99.90
32215;DHT22;18708;53.124;23.190;2023-12-28T02:51:32;0.10;99.90
32215;DHT22;18708;53.124;23.190;2023-12-28T02:53:58;0.10;99.90
32215;DHT22;18708;53.124;23.190;2023-12-28T02:56:23;0.10;99.90
32215;DHT22;18708;53.124;23.190;2023-12-28T02:58:49;0.10;99.90
32215;DHT22;18708;53.124;23.190;2023-12-28T03:01:14;0.20;99.90
32215;DHT22;18708;53.124;23.190;2023-12-28T03:03:40;0.20;99.90
32215;DHT22;18708;53.124;23.190;2023-12-28T03:06:06;0.20;99.90
32215;DHT22;18708;53.124;23.190;2023-12-28T03:08:32;0.10;99.90
32215;DHT22;18708;53.124;23.190;2023-12-28T03:10:57;0.20;99.90
32215;DHT22;18708;53.124;23.190;2023-12-28T03:13:23;0.20;99.90
32215;DHT22;18708;53.124;23.190;2023-12-28T03:15:49;0.20;99.90
32215;DHT22;18708;53.124;23.190;2023-12-28T03:18:14;0.10;99.90
32215;DHT22;18708;53.124;23.190;2023-12-28T03:20:40;0.10;99.90
32215;DHT22;18708;53.124;23.190;2023-12-28T03:23:06;0.10;99.90
32215;DHT22;18708;53.124;23.190;2023-12-28T03:25:33;0.10;99.90
32215;DHT22;18708;53.124;23.190;2023-12-28T03:27:59;0.10;99.90
32215;DHT22;18708;53.124;23.190;2023-12-28T03:30:25;0.10;99.90
32215;DHT22;18708;53.124;23.190;2023-12-28T03:32:50;0.10;99.90
32215;DHT22;18708;53.124;23.190;2023-12-28T03:35:16;0.10;99.90
32215;DHT22;18708;53.124;23.190;2023-12-28T03:37:42;0.10;99.90
32215;DHT22;18708;53.124;23.190;2023-12-28T03:40:08;0.10;99.90
32215;DHT22;18708;53.124;23.190;2023-12-28T03:42:34;0.10;99.90
32215;DHT22;18708;53.124;23.190;2023-12-28T03:44:59;0.10;99.90
32215;DHT22;18708;53.124;23.190;2023-12-28T03:47:25;0.10;99.90
32215;DHT22;18708;53.124;23.190;2023-12-28T03:49:51;0.10;99.90
32215;DHT22;18708;53.124;23.190;2023-12-28T03:52:16;0.10;99.90
32215;DHT22;18708;53.124;23.190;2023-12-28T03:54:42;0.10;99.90
32215;DHT22;18708;53.124;23.190;2023-12-28T03:57:08;0.10;99.90
32215;DHT22;18708;53.124;23.190;2023-12-28T03:59:33;0.10;99.90
32215;DHT22;18708;53.124;23.190;2023-12-28T04:01:59;0.10;99.90
32215;DHT22;18708;53.124;23.190;2023-12-28T04:04:25;0.20;99.90
32215;DHT22;18708;53.124;23.190;2023-12-28T04:06:51;0.20;99.90
32215;DHT22;18708;53.124;23.190;2023-12-28T04:09:16;0.20;99.90
32215;DHT22;18708;53.124;23.190;2023-12-28T04:11:43;0.20;99.90
32215;DHT22;18708;53.124;23.190;2023-12-28T04:14:08;0.20;99.90
32215;DHT22;18708;53.124;23.190;2023-12-28T04:16:34;0.20;99.90
32215;DHT22;18708;53.124;23.190;2023-12-28T04:19:00;0.20;99.90
32215;DHT22;18708;53.124;23.190;2023-12-28T04:21:25;0.20;99.90
32215;DHT22;18708;53.124;23.190;2023-12-28T04:23:51;0.20;99.90
32215;DHT22;18708;53.124;23.190;2023-12-28T04:26:20;0.20;99.90
32215;DHT22;18708;53.124;23.190;2023-12-28T04:28:46;0.30;99.90
32215;DHT22;18708;53.124;23.190;2023-12-28T04:31:11;0.30;99.90
32215;DHT22;18708;53.124;23.190;2023-12-28T04:33:37;0.30;99.90
32215;DHT22;18708;53.124;23.190;2023-12-28T04:36:03;0.30;99.90
32215;DHT22;18708;53.124;23.190;2023-12-28T04:38:32;0.30;99.90
32215;DHT22;18708;53.124;23.190;2023-12-28T04:41:01;0.30;99.90
32215;DHT22;18708;53.124;23.190;2023-12-28T04:43:27;0.30;99.90
32215;DHT22;18708;53.124;23.190;2023-12-28T04:45:53;0.30;99.90
32215;DHT22;18708;53.124;23.190;2023-12-28T04:48:19;0.20;99.90
32215;DHT22;18708;53.124;23.190;2023-12-28T04:50:47;0.20;99.90
32215;DHT22;18708;53.124;23.190;2023-12-28T04:53:13;0.20;99.90
32215;DHT22;18708;53.124;23.190;2023-12-28T04:55:39;0.10;99.90
32215;DHT22;18708;53.124;23.190;2023-12-28T04:58:07;0.10;99.90
32215;DHT22;18708;53.124;23.190;2023-12-28T05:00:32;0.00;99.90
32215;DHT22;18708;53.124;23.190;2023-12-28T05:02:58;0.00;99.90
32215;DHT22;18708;53.124;23.190;2023-12-28T05:05:24;0.00;99.90
32215;DHT22;18708;53.124;23.190;2023-12-28T05:07:49;-0.10;99.90
32215;DHT22;18708;53.124;23.190;2023-12-28T05:10:15;-0.10;99.90
32215;DHT22;18708;53.124;23.190;2023-12-28T05:12:41;-0.10;99.90
32215;DHT22;18708;53.124;23.190;2023-12-28T05:15:07;-0.10;99.90
32215;DHT22;18708;53.124;23.190;2023-12-28T05:17:32;-0.10;99.90
32215;DHT22;18708;53.124;23.190;2023-12-28T05:19:58;-0.20;99.90
32215;DHT22;18708;53.124;23.190;2023-12-28T05:22:24;-0.20;99.90
32215;DHT22;18708;53.124;23.190;2023-12-28T05:24:49;-0.20;99.90
32215;DHT22;18708;53.124;23.190;2023-12-28T05:27:15;-0.20;99.90
32215;DHT22;18708;53.124;23.190;2023-12-28T05:29:41;-0.30;99.90
32215;DHT22;18708;53.124;23.190;2023-12-28T05:32:07;-0.30;99.90
32215;DHT22;18708;53.124;23.190;2023-12-28T05:34:32;-0.30;99.90
32215;DHT22;18708;53.124;23.190;2023-12-28T05:36:58;-0.30;99.90
32215;DHT22;18708;53.124;23.190;2023-12-28T05:39:24;-0.30;99.90
32215;DHT22;18708;53.124;23.190;2023-12-28T05:41:49;-0.30;99.90
32215;DHT22;18708;53.124;23.190;2023-12-28T05:44:16;-0.40;99.90
32215;DHT22;18708;53.124;23.190;2023-12-28T05:46:42;-0.30;99.90
32215;DHT22;18708;53.124;23.190;2023-12-28T05:49:08;-0.40;99.90
32215;DHT22;18708;53.124;23.190;2023-12-28T05:51:38;-0.40;99.90
32215;DHT22;18708;53.124;23.190;2023-12-28T05:54:05;-0.30;99.90
32215;DHT22;18708;53.124;23.190;2023-12-28T05:56:31;-0.30;99.90
32215;DHT22;18708;53.124;23.190;2023-12-28T05:58:57;-0.20;99.90
32215;DHT22;18708;53.124;23.190;2023-12-28T06:01:22;-0.30;99.90
32215;DHT22;18708;53.124;23.190;2023-12-28T06:03:48;-0.30;99.90
32215;DHT22;18708;53.124;23.190;2023-12-28T06:06:15;-0.30;99.90
32215;DHT22;18708;53.124;23.190;2023-12-28T06:08:42;-0.20;99.90
32215;DHT22;18708;53.124;23.190;2023-12-28T06:11:07;-0.10;99.90
32215;DHT22;18708;53.124;23.190;2023-12-28T06:13:33;-0.10;99.90
32215;DHT22;18708;53.124;23.190;2023-12-28T06:15:59;-0.10;99.90
32215;DHT22;18708;53.124;23.190;2023-12-28T06:18:24;-0.10;99.90
32215;DHT22;18708;53.124;23.190;2023-12-28T06:20:50;-0.10;99.90
32215;DHT22;18708;53.124;23.190;2023-12-28T06:23:15;0.00;99.90
32215;DHT22;18708;53.124;23.190;2023-12-28T06:25:41;0.00;99.90
32215;DHT22;18708;53.124;23.190;2023-12-28T06:28:07;0.00;99.90
32215;DHT22;18708;53.124;23.190;2023-12-28T06:30:35;0.10;99.90
32215;DHT22;18708;53.124;23.190;2023-12-28T06:33:01;0.10;99.90
32215;DHT22;18708;53.124;23.190;2023-12-28T06:35:27;0.10;99.90
32215;DHT22;18708;53.124;23.190;2023-12-28T06:37:52;0.10;99.90
32215;DHT22;18708;53.124;23.190;2023-12-28T06:40:18;0.10;99.90
32215;DHT22;18708;53.124;23.190;2023-12-28T06:42:44;0.20;99.90
32215;DHT22;18708;53.124;23.190;2023-12-28T06:45:10;0.30;99.90
32215;DHT22;18708;53.124;23.190;2023-12-28T06:47:36;0.30;99.90
32215;DHT22;18708;53.124;23.190;2023-12-28T06:50:01;0.30;99.90
32215;DHT22;18708;53.124;23.190;2023-12-28T06:52:27;0.30;99.90
32215;DHT22;18708;53.124;23.190;2023-12-28T06:54:53;0.40;99.90
32215;DHT22;18708;53.124;23.190;2023-12-28T06:57:19;0.40;99.90
32215;DHT22;18708;53.124;23.190;2023-12-28T06:59:45;0.50;99.90
32215;DHT22;18708;53.124;23.190;2023-12-28T07:02:10;0.40;99.90
32215;DHT22;18708;53.124;23.190;2023-12-28T07:04:36;0.50;99.90
32215;DHT22;18708;53.124;23.190;2023-12-28T07:07:02;0.40;99.90
32215;DHT22;18708;53.124;23.190;2023-12-28T07:09:30;0.50;99.90
32215;DHT22;18708;53.124;23.190;2023-12-28T07:11:55;0.40;99.90
32215;DHT22;18708;53.124;23.190;2023-12-28T07:14:21;0.40;99.90
32215;DHT22;18708;53.124;23.190;2023-12-28T07:16:47;0.50;99.90
32215;DHT22;18708;53.124;23.190;2023-12-28T07:19:12;0.50;99.90
32215;DHT22;18708;53.124;23.190;2023-12-28T07:21:38;0.50;99.90
32215;DHT22;18708;53.124;23.190;2023-12-28T07:24:04;0.40;99.90
32215;DHT22;18708;53.124;23.190;2023-12-28T07:26:30;0.50;99.90
32215;DHT22;18708;53.124;23.190;2023-12-28T07:28:55;0.50;99.90
32215;DHT22;18708;53.124;23.190;2023-12-28T07:31:25;0.50;99.90
32215;DHT22;18708;53.124;23.190;2023-12-28T07:33:51;0.50;99.90
32215;DHT22;18708;53.124;23.190;2023-12-28T07:36:17;0.50;99.90
32215;DHT22;18708;53.124;23.190;2023-12-28T07:38:43;0.50;99.90
32215;DHT22;18708;53.124;23.190;2023-12-28T07:41:09;0.60;99.90
32215;DHT22;18708;53.124;23.190;2023-12-28T07:43:35;0.60;99.90
32215;DHT22;18708;53.124;23.190;2023-12-28T07:46:01;0.70;99.90
32215;DHT22;18708;53.124;23.190;2023-12-28T07:48:27;0.70;99.90
32215;DHT22;18708;53.124;23.190;2023-12-28T07:50:58;0.80;99.90
32215;DHT22;18708;53.124;23.190;2023-12-28T07:53:24;0.80;99.90
32215;DHT22;18708;53.124;23.190;2023-12-28T07:55:50;0.80;99.90
32215;DHT22;18708;53.124;23.190;2023-12-28T07:58:18;0.90;99.90
32215;DHT22;18708;53.124;23.190;2023-12-28T08:00:44;1.00;99.90
32215;DHT22;18708;53.124;23.190;2023-12-28T08:03:11;1.00;99.90
32215;DHT22;18708;53.124;23.190;2023-12-28T08:05:37;1.00;99.90
32215;DHT22;18708;53.124;23.190;2023-12-28T08:08:03;1.10;99.90
32215;DHT22;18708;53.124;23.190;2023-12-28T08:10:29;1.10;99.90
32215;DHT22;18708;53.124;23.190;2023-12-28T08:12:55;1.20;99.90
32215;DHT22;18708;53.124;23.190;2023-12-28T08:15:20;1.30;99.90
32215;DHT22;18708;53.124;23.190;2023-12-28T08:17:46;1.30;99.90
32215;DHT22;18708;53.124;23.190;2023-12-28T08:20:12;1.40;99.90
32215;DHT22;18708;53.124;23.190;2023-12-28T08:22:37;1.40;99.90
32215;DHT22;18708;53.124;23.190;2023-12-28T08:25:03;1.50;99.90
32215;DHT22;18708;53.124;23.190;2023-12-28T08:27:29;1.60;99.90
32215;DHT22;18708;53.124;23.190;2023-12-28T08:29:55;1.70;99.90
32215;DHT22;18708;53.124;23.190;2023-12-28T08:32:21;1.70;99.90
32215;DHT22;18708;53.124;23.190;2023-12-28T08:34:46;1.70;99.90
32215;DHT22;18708;53.124;23.190;2023-12-28T08:37:13;1.70;99.90
32215;DHT22;18708;53.124;23.190;2023-12-28T08:39:39;1.80;99.90
32215;DHT22;18708;53.124;23.190;2023-12-28T08:42:05;1.80;99.90
32215;DHT22;18708;53.124;23.190;2023-12-28T08:44:31;1.90;99.90
32215;DHT22;18708;53.124;23.190;2023-12-28T08:46:56;1.90;99.90
32215;DHT22;18708;53.124;23.190;2023-12-28T08:49:22;1.90;99.90
32215;DHT22;18708;53.124;23.190;2023-12-28T08:51:48;1.90;99.90
32215;DHT22;18708;53.124;23.190;2023-12-28T08:54:13;1.90;99.90
32215;DHT22;18708;53.124;23.190;2023-12-28T08:56:39;1.90;99.90
32215;DHT22;18708;53.124;23.190;2023-12-28T08:59:05;1.90;99.90
32215;DHT22;18708;53.124;23.190;2023-12-28T09:01:31;2.00;99.90
32215;DHT22;18708;53.124;23.190;2023-12-28T09:03:58;2.00;99.90
32215;DHT22;18708;53.124;23.190;2023-12-28T09:06:24;2.10;99.90
32215;DHT22;18708;53.124;23.190;2023-12-28T09:08:51;2.20;99.90
32215;DHT22;18708;53.124;23.190;2023-12-28T09:11:17;2.20;99.90
32215;DHT22;18708;53.124;23.190;2023-12-28T09:13:43;2.20;99.90
32215;DHT22;18708;53.124;23.190;2023-12-28T09:16:14;2.20;99.90
32215;DHT22;18708;53.124;23.190;2023-12-28T09:18:40;2.20;99.90
32215;DHT22;18708;53.124;23.190;2023-12-28T09:21:08;2.20;99.90
32215;DHT22;18708;53.124;23.190;2023-12-28T09:23:34;2.20;99.90
32215;DHT22;18708;53.124;23.190;2023-12-28T09:26:01;2.30;99.90
32215;DHT22;18708;53.124;23.190;2023-12-28T09:28:28;2.30;99.90
32215;DHT22;18708;53.124;23.190;2023-12-28T09:30:54;2.30;99.90
32215;DHT22;18708;53.124;23.190;2023-12-28T09:33:20;2.30;99.90
32215;DHT22;18708;53.124;23.190;2023-12-28T09:35:46;2.40;99.90
32215;DHT22;18708;53.124;23.190;2023-12-28T09:38:12;2.40;99.90
32215;DHT22;18708;53.124;23.190;2023-12-28T09:40:41;2.40;99.90
32215;DHT22;18708;53.124;23.190;2023-12-28T09:43:21;2.40;99.90
32215;DHT22;18708;53.124;23.190;2023-12-28T09:45:48;2.50;99.90
32215;DHT22;18708;53.124;23.190;2023-12-28T09:48:18;2.50;99.90
32215;DHT22;18708;53.124;23.190;2023-12-28T09:50:54;2.60;99.90
32215;DHT22;18708;53.124;23.190;2023-12-28T09:53:23;2.60;99.90
32215;DHT22;18708;53.124;23.190;2023-12-28T09:55:50;2.60;99.90
32215;DHT22;18708;53.124;23.190;2023-12-28T09:58:20;2.60;99.90
32215;DHT22;18708;53.124;23.190;2023-12-28T10:00:47;2.70;99.90
32215;DHT22;18708;53.124;23.190;2023-12-28T10:03:13;2.70;99.90
32215;DHT22;18708;53.124;23.190;2023-12-28T10:05:44;2.70;99.90
32215;DHT22;18708;53.124;23.190;2023-12-28T10:08:14;2.70;99.90
32215;DHT22;18708;53.124;23.190;2023-12-28T10:10:41;2.70;99.90
32215;DHT22;18708;53.124;23.190;2023-12-28T10:13:07;2.60;99.90
32215;DHT22;18708;53.124;23.190;2023-12-28T10:15:37;2.50;99.90
32215;DHT22;18708;53.124;23.190;2023-12-28T10:18:04;2.60;99.90
32215;DHT22;18708;53.124;23.190;2023-12-28T10:20:31;2.50;99.90
32215;DHT22;18708;53.124;23.190;2023-12-28T10:22:58;2.50;99.90
32215;DHT22;18708;53.124;23.190;2023-12-28T10:25:24;2.50;99.90
32215;DHT22;18708;53.124;23.190;2023-12-28T10:27:53;2.50;99.90
32215;DHT22;18708;53.124;23.190;2023-12-28T10:30:20;2.50;99.90
32215;DHT22;18708;53.124;23.190;2023-12-28T10:32:46;2.50;99.90
32215;DHT22;18708;53.124;23.190;2023-12-28T10:35:13;2.50;99.90
32215;DHT22;18708;53.124;23.190;2023-12-28T10:37:42;2.60;99.90
32215;DHT22;18708;53.124;23.190;2023-12-28T10:40:13;2.60;99.90
32215;DHT22;18708;53.124;23.190;2023-12-28T10:42:54;2.60;99.90
32215;DHT22;18708;53.124;23.190;2023-12-28T10:45:24;2.60;99.90
32215;DHT22;18708;53.124;23.190;2023-12-28T10:48:08;2.60;99.90
32215;DHT22;18708;53.124;23.190;2023-12-28T10:50:47;2.60;99.90
32215;DHT22;18708;53.124;23.190;2023-12-28T10:53:36;2.70;99.90
32215;DHT22;18708;53.124;23.190;2023-12-28T10:56:28;2.70;99.90
32215;DHT22;18708;53.124;23.190;2023-12-28T10:59:22;2.70;99.90
32215;DHT22;18708;53.124;23.190;2023-12-28T11:01:51;2.80;99.90
32215;DHT22;18708;53.124;23.190;2023-12-28T11:04:41;2.80;99.90
32215;DHT22;18708;53.124;23.190;2023-12-28T11:07:10;2.80;99.90
32215;DHT22;18708;53.124;23.190;2023-12-28T11:09:41;2.80;99.90
32215;DHT22;18708;53.124;23.190;2023-12-28T11:12:08;2.90;99.90
32215;DHT22;18708;53.124;23.190;2023-12-28T11:14:36;2.90;99.90
32215;DHT22;18708;53.124;23.190;2023-12-28T11:17:04;2.90;99.90
32215;DHT22;18708;53.124;23.190;2023-12-28T11:19:31;2.90;99.90
32215;DHT22;18708;53.124;23.190;2023-12-28T11:21:57;2.90;99.90
32215;DHT22;18708;53.124;23.190;2023-12-28T11:24:27;3.00;99.90
32215;DHT22;18708;53.124;23.190;2023-12-28T11:26:53;3.00;99.90
32215;DHT22;18708;53.124;23.190;2023-12-28T11:29:23;2.90;99.90
32215;DHT22;18708;53.124;23.190;2023-12-28T11:31:53;2.90;99.90
32215;DHT22;18708;53.124;23.190;2023-12-28T11:34:28;2.90;99.90
32215;DHT22;18708;53.124;23.190;2023-12-28T11:36:55;2.90;99.90
32215;DHT22;18708;53.124;23.190;2023-12-28T11:39:35;3.00;99.90
32215;DHT22;18708;53.124;23.190;2023-12-28T11:42:06;3.00;99.90
32215;DHT22;18708;53.124;23.190;2023-12-28T11:44:43;3.00;99.90
32215;DHT22;18708;53.124;23.190;2023-12-28T11:47:18;3.10;99.90
32215;DHT22;18708;53.124;23.190;2023-12-28T11:49:46;3.10;99.90
32215;DHT22;18708;53.124;23.190;2023-12-28T11:52:29;3.20;99.90
32215;DHT22;18708;53.124;23.190;2023-12-28T11:54:56;3.30;99.90
32215;DHT22;18708;53.124;23.190;2023-12-28T11:57:22;3.30;99.90
32215;DHT22;18708;53.124;23.190;2023-12-28T12:00:01;3.30;99.90
32215;DHT22;18708;53.124;23.190;2023-12-28T12:02:30;3.30;99.90
32215;DHT22;18708;53.124;23.190;2023-12-28T12:04:56;3.30;99.90
32215;DHT22;18708;53.124;23.190;2023-12-28T12:07:27;3.40;99.90
32215;DHT22;18708;53.124;23.190;2023-12-28T12:09:57;3.40;99.90
32215;DHT22;18708;53.124;23.190;2023-12-28T12:12:23;3.50;99.90
32215;DHT22;18708;53.124;23.190;2023-12-28T12:14:49;3.50;99.90
32215;DHT22;18708;53.124;23.190;2023-12-28T12:17:14;3.50;99.90
32215;DHT22;18708;53.124;23.190;2023-12-28T12:19:40;3.50;99.90
32215;DHT22;18708;53.124;23.190;2023-12-28T12:22:06;3.50;99.90
32215;DHT22;18708;53.124;23.190;2023-12-28T12:24:32;3.50;99.90
32215;DHT22;18708;53.124;23.190;2023-12-28T12:26:58;3.50;99.90
32215;DHT22;18708;53.124;23.190;2023-12-28T12:29:29;3.50;99.90
32215;DHT22;18708;53.124;23.190;2023-12-28T12:31:56;3.50;99.90
32215;DHT22;18708;53.124;23.190;2023-12-28T12:34:21;3.50;99.90
32215;DHT22;18708;53.124;23.190;2023-12-28T12:36:47;3.50;99.90
32215;DHT22;18708;53.124;23.190;2023-12-28T12:39:14;3.60;99.90
32215;DHT22;18708;53.124;23.190;2023-12-28T12:41:40;3.50;99.90
32215;DHT22;18708;53.124;23.190;2023-12-28T12:44:07;3.50;99.90
32215;DHT22;18708;53.124;23.190;2023-12-28T12:46:35;3.50;99.90
32215;DHT22;18708;53.124;23.190;2023-12-28T12:49:01;3.60;99.90
32215;DHT22;18708;53.124;23.190;2023-12-28T12:51:28;3.60;99.90
32215;DHT22;18708;53.124;23.190;2023-12-28T12:53:58;3.60;99.90
32215;DHT22;18708;53.124;23.190;2023-12-28T12:56:26;3.60;99.90
32215;DHT22;18708;53.124;23.190;2023-12-28T12:58:51;3.60;99.90
32215;DHT22;18708;53.124;23.190;2023-12-28T13:01:18;3.60;99.90
32215;DHT22;18708;53.124;23.190;2023-12-28T13:03:46;3.60;99.90
32215;DHT22;18708;53.124;23.190;2023-12-28T13:06:12;3.70;99.90
32215;DHT22;18708;53.124;23.190;2023-12-28T13:08:38;3.70;99.90
32215;DHT22;18708;53.124;23.190;2023-12-28T13:11:04;3.70;99.90
32215;DHT22;18708;53.124;23.190;2023-12-28T13:13:32;3.70;99.90
32215;DHT22;18708;53.124;23.190;2023-12-28T13:15:58;3.70;99.90
32215;DHT22;18708;53.124;23.190;2023-12-28T13:18:24;3.80;99.90
32215;DHT22;18708;53.124;23.190;2023-12-28T13:20:50;3.80;99.90
32215;DHT22;18708;53.124;23.190;2023-12-28T13:23:15;3.80;99.90
32215;DHT22;18708;53.124;23.190;2023-12-28T13:25:41;3.80;99.90
32215;DHT22;18708;53.124;23.190;2023-12-28T13:28:08;3.90;99.90
32215;DHT22;18708;53.124;23.190;2023-12-28T13:30:35;3.90;99.90
32215;DHT22;18708;53.124;23.190;2023-12-28T13:33:02;3.90;99.90
32215;DHT22;18708;53.124;23.190;2023-12-28T13:35:28;3.90;99.90
32215;DHT22;18708;53.124;23.190;2023-12-28T13:37:54;3.90;99.90
32215;DHT22;18708;53.124;23.190;2023-12-28T13:40:20;4.00;99.90
32215;DHT22;18708;53.124;23.190;2023-12-28T13:42:46;4.00;99.90
32215;DHT22;18708;53.124;23.190;2023-12-28T13:45:12;4.00;99.90
32215;DHT22;18708;53.124;23.190;2023-12-28T13:47:38;4.00;99.90
32215;DHT22;18708;53.124;23.190;2023-12-28T13:50:04;4.00;99.90
32215;DHT22;18708;53.124;23.190;2023-12-28T13:52:31;4.10;99.90
32215;DHT22;18708;53.124;23.190;2023-12-28T13:54:57;4.10;99.90
32215;DHT22;18708;53.124;23.190;2023-12-28T13:57:23;4.10;99.90
32215;DHT22;18708;53.124;23.190;2023-12-28T13:59:48;4.10;99.90
32215;DHT22;18708;53.124;23.190;2023-12-28T14:02:14;4.00;99.90
32215;DHT22;18708;53.124;23.190;2023-12-28T14:04:40;4.00;99.90
32215;DHT22;18708;53.124;23.190;2023-12-28T14:07:05;4.10;99.90
32215;DHT22;18708;53.124;23.190;2023-12-28T14:09:31;4.10;99.90
32215;DHT22;18708;53.124;23.190;2023-12-28T14:11:58;4.10;99.90
32215;DHT22;18708;53.124;23.190;2023-12-28T14:14:24;4.20;99.90
32215;DHT22;18708;53.124;23.190;2023-12-28T14:16:50;4.20;99.90
32215;DHT22;18708;53.124;23.190;2023-12-28T14:19:15;4.20;99.90
32215;DHT22;18708;53.124;23.190;2023-12-28T14:21:41;4.20;99.90
32215;DHT22;18708;53.124;23.190;2023-12-28T14:24:07;4.20;99.90
32215;DHT22;18708;53.124;23.190;2023-12-28T14:26:34;4.20;99.90
32215;DHT22;18708;53.124;23.190;2023-12-28T14:29:01;4.20;99.90
32215;DHT22;18708;53.124;23.190;2023-12-28T14:31:31;4.20;99.90
32215;DHT22;18708;53.124;23.190;2023-12-28T14:33:57;4.20;99.90
32215;DHT22;18708;53.124;23.190;2023-12-28T14:36:27;4.20;99.90
32215;DHT22;18708;53.124;23.190;2023-12-28T14:39:00;4.20;99.90
32215;DHT22;18708;53.124;23.190;2023-12-28T14:41:26;4.20;99.90
32215;DHT22;18708;53.124;23.190;2023-12-28T14:43:56;4.30;99.90
32215;DHT22;18708;53.124;23.190;2023-12-28T14:46:25;4.30;99.90
32215;DHT22;18708;53.124;23.190;2023-12-28T14:48:51;4.40;99.90
32215;DHT22;18708;53.124;23.190;2023-12-28T14:51:17;4.40;99.90
32215;DHT22;18708;53.124;23.190;2023-12-28T14:53:43;4.30;99.90
32215;DHT22;18708;53.124;23.190;2023-12-28T14:56:08;4.30;99.90
32215;DHT22;18708;53.124;23.190;2023-12-28T14:58:34;4.30;99.90
32215;DHT22;18708;53.124;23.190;2023-12-28T15:01:00;4.30;99.90
32215;DHT22;18708;53.124;23.190;2023-12-28T15:03:25;4.40;99.90
32215;DHT22;18708;53.124;23.190;2023-12-28T15:05:52;4.40;99.90
32215;DHT22;18708;53.124;23.190;2023-12-28T15:08:17;4.40;99.90
32215;DHT22;18708;53.124;23.190;2023-12-28T15:10:44;4.50;99.90
32215;DHT22;18708;53.124;23.190;2023-12-28T15:13:10;4.40;99.90
32215;DHT22;18708;53.124;23.190;2023-12-28T15:15:36;4.40;99.90
32215;DHT22;18708;53.124;23.190;2023-12-28T15:18:02;4.50;99.90
32215;DHT22;18708;53.124;23.190;2023-12-28T15:20:28;4.50;99.90
32215;DHT22;18708;53.124;23.190;2023-12-28T15:22:55;4.50;99.90
32215;DHT22;18708;53.124;23.190;2023-12-28T15:25:22;4.50;99.90